Time;durP1;ratioP1;P1;durP2;ratioP2;P2;SDS_P1;SDS_P2;PMS_P1;PMS_P2;Temp;Humidity;BMP_temperature;BMP_pressure;BME280_temperature;BME280_humidity;BME280_pressure;Samples;Min_cycle;Max_cycle;Signal;HPM_P1;HPM_P2
2021/12/25 00:01:08;;;;;;;;;;;0.80;99.90;;;;;;5037643;28;19925;-81
2021/12/25 00:03:35;;;;;;;;;;;3.40;99.90;;;;;;5046337;28;19925;-85
2021/12/25 00:06:01;;;;;;;;;;;1.70;99.90;;;;;;5039367;28;20040;-81
2021/12/25 00:08:27;;;;;;;;;;;2.30;99.90;;;;;;5036419;28;20283;-80
2021/12/25 00:10:54;;;;;;;;;;;4.50;99.90;;;;;;5036158;28;20175;-82
2021/12/25 00:13:20;;;;;;;;;;;5.10;99.90;;;;;;5043632;28;19940;-80
2021/12/25 00:15:46;;;;;;;;;;;3.90;99.90;;;;;;5030728;28;19932;-83
2021/12/25 00:18:12;;;;;;;;;;;0.30;99.90;;;;;;5029832;28;19925;-81
2021/12/25 00:20:37;;;;;;;;;;;2.50;99.90;;;;;;5032975;28;20415;-85
2021/12/25 00:23:05;;;;;;;;;;;1.20;99.90;;;;;;5038345;28;19925;-81
2021/12/25 00:25:40;;;;;;;;;;;3.80;99.90;;;;;;5017291;28;19932;-82
2021/12/25 00:33:03;;;;;;;;;;;2.10;99.90;;;;;;5036768;28;19932;-81
2021/12/25 00:35:29;;;;;;;;;;;4.00;99.90;;;;;;5029994;28;20016;-80
2021/12/25 00:37:54;;;;;;;;;;;0.80;99.90;;;;;;5036497;28;20020;-81
2021/12/25 00:40:20;;;;;;;;;;;0.60;99.90;;;;;;5051668;28;20373;-80
2021/12/25 00:42:46;;;;;;;;;;;1.40;99.90;;;;;;5047316;28;19929;-82
2021/12/25 00:45:11;;;;;;;;;;;0.60;99.90;;;;;;5043894;28;19928;-79
2021/12/25 00:47:37;;;;;;;;;;;0.60;99.90;;;;;;5041426;28;19952;-86
2021/12/25 00:50:03;;;;;;;;;;;0.40;99.90;;;;;;5037215;28;20033;-81
2021/12/25 00:52:29;;;;;;;;;;;0.30;99.90;;;;;;5039708;28;19928;-82
2021/12/25 00:54:54;;;;;;;;;;;0.20;99.90;;;;;;5041096;28;19932;-83
2021/12/25 00:57:20;;;;;;;;;;;0.10;99.90;;;;;;5041439;28;19925;-80
2021/12/25 00:59:46;;;;;;;;;;;3.20;99.90;;;;;;5040767;28;20288;-80
2021/12/25 01:02:11;;;;;;;;;;;-0.10;99.90;;;;;;5044540;28;19925;-79
2021/12/25 01:04:37;;;;;;;;;;;2.10;99.90;;;;;;5041320;28;19932;-79
2021/12/25 01:07:02;;;;;;;;;;;-0.10;99.90;;;;;;5038953;28;20114;-80
2021/12/25 01:09:28;;;;;;;;;;;-0.30;99.90;;;;;;5042053;28;19932;-80
2021/12/25 01:11:54;;;;;;;;;;;2.00;99.90;;;;;;5001910;28;19925;-80
2021/12/25 01:20:07;;;;;;;;;;;-1.00;99.90;;;;;;5040027;28;20015;-79
2021/12/25 01:48:46;;;;;;;;;;;-0.10;18.00;;;;;;5040506;28;20024;-85
2021/12/25 01:51:12;;;;;;;;;;;-1.40;1.00;;;;;;5041282;28;20063;-86
2021/12/25 01:53:38;;;;;;;;;;;-0.40;1.00;;;;;;5042325;28;19948;-85
2021/12/25 01:56:04;;;;;;;;;;;0.30;99.90;;;;;;5046510;28;19936;-86
2021/12/25 01:58:30;;;;;;;;;;;-1.40;99.90;;;;;;5041278;28;20386;-86
2021/12/25 02:00:57;;;;;;;;;;;-1.40;99.90;;;;;;5025821;28;20274;-87
2021/12/25 02:03:29;;;;;;;;;;;-1.40;99.90;;;;;;5041742;28;20046;-86
2021/12/25 02:05:56;;;;;;;;;;;-1.50;99.90;;;;;;5040305;28;20051;-87
2021/12/25 02:08:22;;;;;;;;;;;-1.60;99.90;;;;;;5042336;28;19978;-87
2021/12/25 02:10:48;;;;;;;;;;;-1.60;1.00;;;;;;5025946;28;20023;-88
2021/12/25 02:13:14;;;;;;;;;;;-1.50;1.00;;;;;;5032100;28;20059;-87
2021/12/25 02:15:43;;;;;;;;;;;-1.60;1.00;;;;;;5048332;28;20242;-88
2021/12/25 02:18:26;;;;;;;;;;;-1.80;99.90;;;;;;5032414;28;20036;-88
2021/12/25 02:23:22;;;;;;;;;;;-1.70;99.90;;;;;;5044444;28;21779;-89
2021/12/25 02:25:54;;;;;;;;;;;-2.80;99.90;;;;;;5028647;28;19925;-90
2021/12/25 02:28:23;;;;;;;;;;;-1.90;99.90;;;;;;5043006;28;20019;-90
2021/12/25 02:31:09;;;;;;;;;;;-1.80;99.90;;;;;;5024813;28;19997;-91
2021/12/25 02:33:35;;;;;;;;;;;-1.90;99.90;;;;;;5031002;28;19967;-91
2021/12/25 02:36:01;;;;;;;;;;;-2.00;99.90;;;;;;5043038;28;19972;-91
2021/12/25 02:38:40;;;;;;;;;;;-2.00;99.90;;;;;;5023655;28;19983;-91
2021/12/25 02:41:11;;;;;;;;;;;-2.00;99.90;;;;;;5040696;28;20019;-90
2021/12/25 02:43:57;;;;;;;;;;;-2.00;99.90;;;;;;5017091;28;19978;-93
2021/12/25 02:50:03;;;;;;;;;;;-2.00;99.90;;;;;;5038464;28;19947;-91
2021/12/25 02:52:36;;;;;;;;;;;-2.10;70.20;;;;;;5037120;28;19951;-92
2021/12/25 02:55:22;;;;;;;;;;;-2.20;95.00;;;;;;5012650;28;19952;-91
2021/12/25 02:58:39;;;;;;;;;;;-2.20;70.20;;;;;;5041846;28;19937;-90
2021/12/25 03:01:29;;;;;;;;;;;-2.20;71.40;;;;;;4995205;28;19973;-92
2021/12/25 03:04:00;;;;;;;;;;;-2.30;90.30;;;;;;4972254;28;19948;-91
2021/12/25 03:06:26;;;;;;;;;;;-2.40;96.30;;;;;;5007905;28;20377;-91
2021/12/25 03:09:21;;;;;;;;;;;-2.30;99.90;;;;;;5027828;28;19925;-93
2021/12/25 03:11:52;;;;;;;;;;;-2.30;57.50;;;;;;5039410;28;19929;-92
2021/12/25 03:14:39;;;;;;;;;;;-2.30;55.30;;;;;;5016718;28;19974;-91
2021/12/25 03:17:08;;;;;;;;;;;-2.30;1.00;;;;;;5032004;28;19931;-91
2021/12/25 03:19:39;;;;;;;;;;;-2.40;1.00;;;;;;5030306;28;20253;-91
2021/12/25 03:22:05;;;;;;;;;;;-2.60;21.00;;;;;;5029641;28;20311;-91
2021/12/25 03:24:33;;;;;;;;;;;-2.70;75.50;;;;;;5015810;28;19939;-90
2021/12/25 03:26:59;;;;;;;;;;;-2.60;81.90;;;;;;5040263;28;20004;-89
2021/12/25 03:29:25;;;;;;;;;;;-2.70;80.50;;;;;;5025065;28;19935;-90
2021/12/25 03:31:51;;;;;;;;;;;-2.70;70.00;;;;;;5030416;28;19925;-89
2021/12/25 03:34:19;;;;;;;;;;;-2.70;10.70;;;;;;5031704;28;22204;-88
2021/12/25 03:36:53;;;;;;;;;;;-2.80;30.40;;;;;;5031146;28;20345;-89
2021/12/25 03:39:18;;;;;;;;;;;-2.90;29.30;;;;;;5026229;28;19940;-89
2021/12/25 03:41:47;;;;;;;;;;;-2.90;47.30;;;;;;5030030;28;19924;-89
2021/12/25 03:44:13;;;;;;;;;;;-2.90;48.80;;;;;;5039000;28;19925;-89
2021/12/25 03:46:42;;;;;;;;;;;-2.80;76.30;;;;;;5024715;28;20266;-89
2021/12/25 03:49:26;;;;;;;;;;;-2.90;38.50;;;;;;5018578;28;19936;-89
2021/12/25 03:57:44;;;;;;;;;;;-2.90;1.00;;;;;;5052330;28;20405;-89
2021/12/25 04:00:15;;;;;;;;;;;-2.90;1.00;;;;;;5032317;28;20015;-89
2021/12/25 04:02:55;;;;;;;;;;;-3.00;1.00;;;;;;5031997;28;19979;-88
2021/12/25 04:05:26;;;;;;;;;;;-2.90;1.00;;;;;;5021371;28;20447;-89
2021/12/25 04:08:02;;;;;;;;;;;-3.10;1.00;;;;;;5026930;28;19925;-88
2021/12/25 04:10:29;;;;;;;;;;;-3.00;1.00;;;;;;5022220;28;19929;-90
2021/12/25 04:12:55;;;;;;;;;;;-3.60;1.00;;;;;;5023732;28;20314;-88
2021/12/25 04:15:21;;;;;;;;;;;-3.00;1.00;;;;;;5046272;28;19932;-89
2021/12/25 04:17:46;;;;;;;;;;;-2.90;1.00;;;;;;5030716;28;19925;-89
2021/12/25 04:20:12;;;;;;;;;;;-3.00;1.00;;;;;;5031173;28;20342;-89
2021/12/25 04:25:35;;;;;;;;;;;-3.10;1.00;;;;;;5032637;28;20287;-89
2021/12/25 04:28:09;;;;;;;;;;;-3.10;1.00;;;;;;5034047;28;19940;-89
2021/12/25 04:42:34;;;;;;;;;;;-3.40;1.00;;;;;;5038917;28;19925;-90
2021/12/25 05:03:54;;;;;;;;;;;-3.20;99.90;;;;;;5044272;28;19928;-90
2021/12/25 05:06:23;;;;;;;;;;;-3.20;99.90;;;;;;5040354;28;19929;-89
2021/12/25 05:08:54;;;;;;;;;;;-3.40;99.90;;;;;;5026479;28;19933;-88
2021/12/25 05:11:20;;;;;;;;;;;-3.40;99.90;;;;;;5024903;28;19987;-89
2021/12/25 05:13:49;;;;;;;;;;;-3.50;99.90;;;;;;5041346;28;19929;-90
2021/12/25 05:16:14;;;;;;;;;;;-3.50;99.90;;;;;;5025231;28;19928;-88
2021/12/25 05:18:40;;;;;;;;;;;-3.50;99.90;;;;;;5037318;28;21793;-89
2021/12/25 05:21:07;;;;;;;;;;;-3.50;99.90;;;;;;5024016;28;19991;-89
2021/12/25 05:23:34;;;;;;;;;;;-3.60;99.90;;;;;;5030103;28;19932;-89
2021/12/25 05:26:00;;;;;;;;;;;-2.50;99.90;;;;;;5050469;28;19925;-89
2021/12/25 05:28:27;;;;;;;;;;;-3.60;99.90;;;;;;5042647;28;20278;-88
2021/12/25 05:30:53;;;;;;;;;;;-3.60;99.90;;;;;;5042869;28;19932;-90
2021/12/25 05:33:20;;;;;;;;;;;-3.50;99.90;;;;;;5025780;28;19925;-89
2021/12/25 05:35:46;;;;;;;;;;;-3.50;99.90;;;;;;5006093;28;20677;-89
2021/12/25 05:38:14;;;;;;;;;;;-3.40;99.90;;;;;;5024128;28;19936;-89
2021/12/25 05:40:44;;;;;;;;;;;-3.50;99.90;;;;;;5017963;28;19975;-90
2021/12/25 05:43:09;;;;;;;;;;;-3.40;99.90;;;;;;5037074;28;19978;-89
2021/12/25 05:45:38;;;;;;;;;;;-1.50;99.90;;;;;;5026195;28;19932;-90
2021/12/25 05:48:04;;;;;;;;;;;-3.50;99.90;;;;;;5033852;28;19944;-88
2021/12/25 05:50:30;;;;;;;;;;;-3.50;99.90;;;;;;5031794;28;19932;-89
2021/12/25 05:53:02;;;;;;;;;;;-1.00;99.90;;;;;;5042376;28;20451;-89
2021/12/25 05:55:34;;;;;;;;;;;-3.50;99.90;;;;;;5029127;28;20661;-90
2021/12/25 05:58:03;;;;;;;;;;;-3.40;99.90;;;;;;5045432;28;20007;-90
2021/12/25 06:00:30;;;;;;;;;;;-3.50;99.90;;;;;;5030942;28;20320;-89
2021/12/25 06:02:56;;;;;;;;;;;-3.60;99.90;;;;;;5016905;28;19929;-89
2021/12/25 06:05:22;;;;;;;;;;;-3.60;99.90;;;;;;5029388;28;19936;-89
2021/12/25 06:07:48;;;;;;;;;;;-3.60;99.90;;;;;;5024038;28;20055;-89
2021/12/25 06:10:19;;;;;;;;;;;-3.60;99.90;;;;;;5037280;28;20370;-90
2021/12/25 06:12:47;;;;;;;;;;;-3.50;99.90;;;;;;5038228;28;19933;-88
2021/12/25 06:15:19;;;;;;;;;;;-3.50;99.90;;;;;;5035279;28;20538;-89
2021/12/25 06:17:44;;;;;;;;;;;-3.80;99.90;;;;;;5040835;28;19974;-88
2021/12/25 06:20:10;;;;;;;;;;;-3.30;99.90;;;;;;5033889;28;20015;-88
2021/12/25 06:22:36;;;;;;;;;;;-5.60;99.90;;;;;;5055618;28;19929;-88
2021/12/25 06:25:03;;;;;;;;;;;-3.80;99.90;;;;;;5045339;28;20008;-89
2021/12/25 06:27:28;;;;;;;;;;;-3.70;99.90;;;;;;5043527;28;19978;-89
2021/12/25 06:29:54;;;;;;;;;;;-3.70;99.90;;;;;;5054903;28;19933;-89
2021/12/25 06:32:20;;;;;;;;;;;-3.80;99.90;;;;;;5043727;28;19961;-90
2021/12/25 06:34:46;;;;;;;;;;;-3.90;99.90;;;;;;5027057;28;19999;-90
2021/12/25 06:37:12;;;;;;;;;;;-3.80;99.90;;;;;;5038912;28;19925;-91
2021/12/25 06:39:40;;;;;;;;;;;-3.50;99.90;;;;;;5041417;28;19933;-91
2021/12/25 06:42:11;;;;;;;;;;;-3.90;99.90;;;;;;5056841;28;19979;-91
2021/12/25 06:44:41;;;;;;;;;;;-3.80;99.90;;;;;;5029680;28;19932;-91
2021/12/25 06:47:09;;;;;;;;;;;-3.90;99.90;;;;;;5019169;28;19925;-91
2021/12/25 06:49:37;;;;;;;;;;;-0.50;99.90;;;;;;5031435;28;20170;-92
2021/12/25 06:52:23;;;;;;;;;;;-4.00;99.90;;;;;;5027464;28;20349;-92
2021/12/25 06:54:50;;;;;;;;;;;-3.90;99.90;;;;;;5036968;28;20030;-92
2021/12/25 06:57:17;;;;;;;;;;;-6.50;99.90;;;;;;5031135;28;19929;-90
2021/12/25 06:59:46;;;;;;;;;;;-4.20;99.90;;;;;;5034253;28;20415;-92
2021/12/25 07:02:21;;;;;;;;;;;-4.10;99.90;;;;;;5021916;28;19924;-92
2021/12/25 07:04:46;;;;;;;;;;;-4.10;99.90;;;;;;5032433;28;20384;-92
2021/12/25 07:07:20;;;;;;;;;;;-4.10;99.90;;;;;;5050468;28;19932;-91
2021/12/25 07:09:48;;;;;;;;;;;-2.70;99.90;;;;;;5040091;28;19924;-92
2021/12/25 07:12:23;;;;;;;;;;;-4.20;99.90;;;;;;5043845;28;19925;-92
2021/12/25 07:14:52;;;;;;;;;;;-4.10;99.90;;;;;;5051546;28;19925;-92
2021/12/25 07:17:21;;;;;;;;;;;-4.10;99.90;;;;;;5055790;28;20373;-92
2021/12/25 07:20:48;;;;;;;;;;;;;;;;;;;;;
2021/12/25 07:23:30;;;;;;;;;;;-4.30;99.90;;;;;;5038694;28;19924;-91
2021/12/25 07:26:01;;;;;;;;;;;-4.10;99.90;;;;;;5031779;28;20011;-91
2021/12/25 07:28:37;;;;;;;;;;;-4.40;99.90;;;;;;5032078;28;20018;-92
2021/12/25 07:31:08;;;;;;;;;;;-4.30;99.90;;;;;;5018648;28;19924;-91
2021/12/25 07:33:36;;;;;;;;;;;-4.10;99.90;;;;;;5025648;28;19926;-92
2021/12/25 07:36:07;;;;;;;;;;;-4.20;99.90;;;;;;5017190;28;19996;-92
2021/12/25 07:38:35;;;;;;;;;;;-4.20;99.90;;;;;;5033871;28;19925;-93
2021/12/25 07:41:28;;;;;;;;;;;-4.30;99.90;;;;;;5030322;28;20006;-92
2021/12/25 07:44:13;;;;;;;;;;;-4.30;99.90;;;;;;5023409;28;19925;-91
2021/12/25 07:46:55;;;;;;;;;;;-4.30;99.90;;;;;;5025358;28;19921;-93
2021/12/25 07:49:21;;;;;;;;;;;-4.30;99.90;;;;;;5000173;28;19929;-92
2021/12/25 07:51:59;;;;;;;;;;;-4.40;99.90;;;;;;5022000;28;19929;-93
2021/12/25 07:54:24;;;;;;;;;;;-4.30;99.90;;;;;;5028975;28;19936;-92
2021/12/25 07:57:10;;;;;;;;;;;-4.00;99.90;;;;;;5018008;28;19925;-91
2021/12/25 07:59:36;;;;;;;;;;;-4.30;99.90;;;;;;5031424;28;19936;-90
2021/12/25 08:02:17;;;;;;;;;;;-4.30;99.90;;;;;;5035147;28;19925;-92
2021/12/25 08:04:50;;;;;;;;;;;-4.40;99.90;;;;;;5031341;28;20160;-92
2021/12/25 08:07:45;;;;;;;;;;;-4.50;99.90;;;;;;5029126;28;19979;-94
2021/12/25 08:13:30;;;;;;;;;;;-4.40;99.90;;;;;;4992331;28;19937;-92
2021/12/25 08:15:58;;;;;;;;;;;-4.30;99.90;;;;;;4969673;28;19925;-93
2021/12/25 08:18:26;;;;;;;;;;;-4.30;99.90;;;;;;5033939;28;20005;-94
2021/12/25 08:21:04;;;;;;;;;;;-4.30;99.90;;;;;;5025511;28;19937;-94
2021/12/25 08:23:32;;;;;;;;;;;-4.30;99.90;;;;;;5037995;28;19928;-93
2021/12/25 08:25:59;;;;;;;;;;;-4.40;99.90;;;;;;5036532;28;19940;-93
2021/12/25 08:28:25;;;;;;;;;;;-4.20;99.90;;;;;;5035673;28;19979;-90
2021/12/25 08:30:50;;;;;;;;;;;-4.40;99.90;;;;;;5019780;28;19936;-89
2021/12/25 08:33:16;;;;;;;;;;;-4.60;99.90;;;;;;5036315;28;19976;-93
2021/12/25 08:35:42;;;;;;;;;;;-4.30;99.90;;;;;;5036793;28;20013;-93
2021/12/25 08:38:11;;;;;;;;;;;-4.20;99.90;;;;;;5029571;28;19925;-90
2021/12/25 08:40:38;;;;;;;;;;;-4.20;99.90;;;;;;5020663;28;19925;-91
2021/12/25 08:43:04;;;;;;;;;;;-4.30;99.90;;;;;;5037301;28;19924;-94
2021/12/25 08:45:49;;;;;;;;;;;-4.20;99.90;;;;;;5032838;28;19925;-93
2021/12/25 08:48:23;;;;;;;;;;;-4.40;99.90;;;;;;5035185;28;19943;-92
2021/12/25 08:50:50;;;;;;;;;;;-4.10;99.90;;;;;;5029371;28;19929;-92
2021/12/25 08:53:17;;;;;;;;;;;-4.10;99.90;;;;;;5048459;28;20340;-91
2021/12/25 08:55:43;;;;;;;;;;;-4.20;99.90;;;;;;5031443;28;19921;-90
2021/12/25 08:58:12;;;;;;;;;;;-4.00;99.90;;;;;;5040391;28;19921;-91
2021/12/25 09:00:40;;;;;;;;;;;-3.90;99.90;;;;;;5023908;28;19927;-91
2021/12/25 09:03:05;;;;;;;;;;;-3.90;99.90;;;;;;5022850;28;19968;-91
2021/12/25 09:05:32;;;;;;;;;;;-4.00;99.90;;;;;;5019705;28;19965;-88
2021/12/25 09:07:58;;;;;;;;;;;-3.80;99.90;;;;;;5044545;28;20288;-89
2021/12/25 09:10:23;;;;;;;;;;;-3.90;99.90;;;;;;5043186;28;19924;-88
2021/12/25 09:12:50;;;;;;;;;;;-3.90;99.90;;;;;;5033671;28;19932;-91
2021/12/25 09:15:16;;;;;;;;;;;-3.70;99.90;;;;;;5025738;28;19928;-90
2021/12/25 09:17:42;;;;;;;;;;;-3.80;99.90;;;;;;5033620;28;19956;-90
2021/12/25 09:20:09;;;;;;;;;;;-5.80;99.90;;;;;;5023033;28;19929;-89
2021/12/25 09:22:34;;;;;;;;;;;-3.50;99.90;;;;;;5059754;28;19928;-89
2021/12/25 09:25:00;;;;;;;;;;;-3.60;99.90;;;;;;5021672;28;19931;-89
2021/12/25 09:27:26;;;;;;;;;;;-3.50;99.90;;;;;;5034699;28;19977;-88
2021/12/25 09:29:52;;;;;;;;;;;-3.40;99.90;;;;;;5033182;28;19924;-89
2021/12/25 09:32:17;;;;;;;;;;;-3.30;99.90;;;;;;5033319;28;19936;-89
2021/12/25 09:34:46;;;;;;;;;;;-3.30;99.90;;;;;;5029304;28;19979;-90
2021/12/25 09:37:12;;;;;;;;;;;-3.30;99.90;;;;;;5015595;28;20019;-90
2021/12/25 09:39:38;;;;;;;;;;;-3.20;99.90;;;;;;5039551;28;19983;-90
2021/12/25 09:42:04;;;;;;;;;;;-3.20;99.90;;;;;;5032920;28;19986;-89
2021/12/25 09:44:30;;;;;;;;;;;-3.20;99.90;;;;;;5013579;28;19947;-91
2021/12/25 09:46:55;;;;;;;;;;;-3.30;99.90;;;;;;5048168;28;19933;-90
2021/12/25 09:49:23;;;;;;;;;;;-1.50;99.90;;;;;;5047558;28;19936;-91
2021/12/25 09:51:49;;;;;;;;;;;-2.80;99.90;;;;;;5041869;28;19935;-86
2021/12/25 09:54:15;;;;;;;;;;;-2.90;99.90;;;;;;5049642;28;19925;-90
2021/12/25 09:56:42;;;;;;;;;;;-2.90;99.90;;;;;;5029144;28;19935;-91
2021/12/25 09:59:12;;;;;;;;;;;-2.90;99.90;;;;;;5055329;28;19932;-90
2021/12/25 10:01:41;;;;;;;;;;;-3.90;99.90;;;;;;5027332;28;20330;-90
2021/12/25 10:04:08;;;;;;;;;;;-5.60;99.90;;;;;;5044895;28;19933;-90
2021/12/25 10:06:38;;;;;;;;;;;-0.40;99.90;;;;;;5039327;28;20012;-93
2021/12/25 10:09:35;;;;;;;;;;;-2.70;99.90;;;;;;5030699;28;19925;-90
2021/12/25 10:12:06;;;;;;;;;;;-2.60;99.90;;;;;;5012185;28;19935;-90
2021/12/25 10:14:32;;;;;;;;;;;-2.50;99.90;;;;;;5025399;28;20321;-92
2021/12/25 10:17:16;;;;;;;;;;;-4.30;99.90;;;;;;5024772;28;19929;-92
2021/12/25 10:19:42;;;;;;;;;;;-2.50;99.90;;;;;;5059916;28;19925;-92
2021/12/25 10:22:09;;;;;;;;;;;-2.20;99.90;;;;;;5024455;28;20339;-92
2021/12/25 10:25:01;;;;;;;;;;;-1.70;99.90;;;;;;5048498;28;19932;-91
2021/12/25 10:28:09;;;;;;;;;;;-1.20;99.90;;;;;;5047591;28;19940;-93
2021/12/25 10:30:58;;;;;;;;;;;-1.30;99.90;;;;;;5056948;28;19995;-92
2021/12/25 10:33:32;;;;;;;;;;;-1.50;99.90;;;;;;5046586;28;20015;-91
2021/12/25 10:36:04;;;;;;;;;;;-1.60;99.90;;;;;;5030359;28;19968;-94
2021/12/25 10:39:05;;;;;;;;;;;-1.80;99.90;;;;;;5024920;28;19982;-92
2021/12/25 10:41:39;;;;;;;;;;;-1.90;99.90;;;;;;5016549;28;19932;-93
2021/12/25 10:44:43;;;;;;;;;;;;;;;;;;;;;
2021/12/25 10:47:27;;;;;;;;;;;-0.20;99.90;;;;;;5056118;28;20031;-92
2021/12/25 10:50:25;;;;;;;;;;;-1.80;99.90;;;;;;5022449;28;19939;-94
2021/12/25 10:53:05;;;;;;;;;;;-1.90;99.90;;;;;;5006905;28;20052;-92
2021/12/25 10:55:31;;;;;;;;;;;-1.90;99.90;;;;;;5016349;28;19929;-92
2021/12/25 10:58:00;;;;;;;;;;;-1.80;99.90;;;;;;5041136;28;20012;-92
2021/12/25 11:00:39;;;;;;;;;;;-1.80;99.90;;;;;;5033097;28;20369;-93
2021/12/25 11:03:09;;;;;;;;;;;-1.80;99.90;;;;;;5026906;28;19929;-92
2021/12/25 11:05:48;;;;;;;;;;;-1.70;99.90;;;;;;5027315;28;19982;-92
2021/12/25 11:08:57;;;;;;;;;;;;;;;;;;;;;
2021/12/25 11:15:19;;;;;;;;;;;-1.00;99.90;;;;;;4980360;28;19949;-93
2021/12/25 11:17:52;;;;;;;;;;;-1.80;99.90;;;;;;4984051;28;19926;-90
2021/12/25 11:24:19;;;;;;;;;;;-1.70;99.90;;;;;;4973977;28;20333;-96
2021/12/25 11:26:55;;;;;;;;;;;-1.60;99.90;;;;;;4992326;28;19933;-94
2021/12/25 11:29:43;;;;;;;;;;;-1.60;99.90;;;;;;4980705;28;19932;-95
2021/12/25 11:32:11;;;;;;;;;;;-1.50;99.90;;;;;;4991252;28;19926;-93
2021/12/25 11:35:02;;;;;;;;;;;-1.70;99.90;;;;;;4991747;28;19922;-95
2021/12/25 11:37:41;;;;;;;;;;;;;;;;;;;;;
2021/12/25 11:41:09;;;;;;;;;;;;;;;;;;;;;
2021/12/25 11:44:22;;;;;;;;;;;;;;;;;;;;;
2021/12/25 11:54:17;;;;;;;;;;;0.50;99.90;;;;;;5033388;28;19994;-93
2021/12/25 12:00:07;;;;;;;;;;;-1.40;99.90;;;;;;5041537;28;19920;-91
2021/12/25 12:02:42;;;;;;;;;;;-1.40;99.90;;;;;;5026847;28;19971;-91
2021/12/25 12:05:31;;;;;;;;;;;-1.40;99.90;;;;;;5038656;28;20285;-92
2021/12/25 12:08:03;;;;;;;;;;;-1.30;99.90;;;;;;5042353;28;19964;-90
2021/12/25 12:10:44;;;;;;;;;;;-1.50;99.90;;;;;;5039697;28;19923;-95
2021/12/25 12:13:17;;;;;;;;;;;-0.90;99.90;;;;;;5045776;28;19971;-89
2021/12/25 12:15:50;;;;;;;;;;;-1.30;99.90;;;;;;5036739;28;19935;-92
2021/12/25 12:18:30;;;;;;;;;;;-1.40;99.90;;;;;;5041704;28;19975;-90
2021/12/25 12:21:15;;;;;;;;;;;-1.30;99.90;;;;;;5031245;28;19928;-95
2021/12/25 12:24:23;;;;;;;;;;;-1.30;99.90;;;;;;5038733;28;19929;-96
2021/12/25 12:27:29;;;;;;;;;;;-1.20;99.90;;;;;;5042884;28;20048;-88
2021/12/25 12:29:57;;;;;;;;;;;-1.40;99.90;;;;;;5026843;28;19978;-90
2021/12/25 12:32:36;;;;;;;;;;;-1.40;99.90;;;;;;5035109;28;19925;-88
2021/12/25 12:35:07;;;;;;;;;;;-1.00;99.90;;;;;;5048108;28;19925;-90
2021/12/25 12:38:10;;;;;;;;;;;-1.30;99.90;;;;;;5031019;28;19988;-93
2021/12/25 12:47:36;;;;;;;;;;;-1.20;99.90;;;;;;5063577;28;19942;-82
2021/12/25 12:50:02;;;;;;;;;;;2.50;99.90;;;;;;5038528;28;20369;-81
2021/12/25 12:52:34;;;;;;;;;;;-1.20;99.90;;;;;;5071973;28;19948;-92
2021/12/25 12:55:13;;;;;;;;;;;-1.30;99.90;;;;;;5052444;28;20161;-88
2021/12/25 12:57:40;;;;;;;;;;;-1.40;99.90;;;;;;5034531;28;19925;-90
2021/12/25 13:00:18;;;;;;;;;;;-1.40;99.90;;;;;;5044629;28;19936;-87
2021/12/25 13:02:48;;;;;;;;;;;-1.30;99.90;;;;;;5052923;28;19935;-89
2021/12/25 13:05:24;;;;;;;;;;;-1.40;99.90;;;;;;5050246;28;19924;-90
2021/12/25 13:07:55;;;;;;;;;;;-1.30;99.90;;;;;;5053082;28;19932;-86
2021/12/25 13:13:19;;;;;;;;;;;-1.40;99.90;;;;;;5042543;28;19940;-91
2021/12/25 13:15:54;;;;;;;;;;;-1.20;99.90;;;;;;5034902;28;20258;-93
2021/12/25 13:18:26;;;;;;;;;;;-1.20;99.90;;;;;;5064370;28;19963;-91
2021/12/25 13:20:52;;;;;;;;;;;-1.30;99.90;;;;;;5064670;28;20336;-91
2021/12/25 13:23:21;;;;;;;;;;;-1.40;99.90;;;;;;5034536;28;19924;-91
2021/12/25 13:26:01;;;;;;;;;;;-1.30;99.90;;;;;;5041098;28;19948;-90
2021/12/25 13:28:28;;;;;;;;;;;-1.30;99.90;;;;;;5036940;28;19975;-91
2021/12/25 13:31:06;;;;;;;;;;;-1.30;99.90;;;;;;5059725;28;20274;-92
2021/12/25 13:33:34;;;;;;;;;;;-1.90;99.90;;;;;;5063137;28;20376;-94
2021/12/25 13:36:08;;;;;;;;;;;-1.40;99.90;;;;;;5046370;28;19928;-90
2021/12/25 13:38:52;;;;;;;;;;;-1.40;99.90;;;;;;5070261;28;20195;-95
2021/12/25 13:41:30;;;;;;;;;;;-1.40;99.90;;;;;;5044777;28;20667;-92
2021/12/25 13:44:10;;;;;;;;;;;-1.40;99.90;;;;;;5030834;28;20240;-92
2021/12/25 13:46:57;;;;;;;;;;;-1.20;99.90;;;;;;5065639;28;19925;-88
2021/12/25 13:49:36;;;;;;;;;;;-1.20;99.90;;;;;;5065220;28;20124;-92
2021/12/25 13:58:36;;;;;;;;;;;-1.50;99.90;;;;;;5050868;28;20015;-92
2021/12/25 14:01:02;;;;;;;;;;;-1.50;99.90;;;;;;5037850;28;19924;-87
2021/12/25 14:03:30;;;;;;;;;;;-1.50;99.90;;;;;;5070083;28;20431;-88
2021/12/25 14:05:56;;;;;;;;;;;-1.70;99.90;;;;;;5039451;28;19933;-89
2021/12/25 14:08:24;;;;;;;;;;;-1.50;99.90;;;;;;5048200;28;19925;-89
2021/12/25 14:30:43;;;;;;;;;;;-1.90;99.90;;;;;;5034655;28;20009;-95
2021/12/25 14:33:17;;;;;;;;;;;-1.90;99.90;;;;;;5034353;28;19925;-95
2021/12/25 14:35:42;;;;;;;;;;;-1.30;99.90;;;;;;5050622;28;20081;-90
2021/12/25 14:38:11;;;;;;;;;;;-2.10;99.90;;;;;;5017364;28;20377;-92
2021/12/25 14:40:45;;;;;;;;;;;-1.90;99.90;;;;;;5031336;28;20433;-92
2021/12/25 14:43:11;;;;;;;;;;;-2.00;99.90;;;;;;5056098;28;19924;-92
2021/12/25 14:45:41;;;;;;;;;;;-0.10;99.90;;;;;;5003183;28;19967;-90
2021/12/25 14:48:06;;;;;;;;;;;-2.10;99.90;;;;;;5015392;28;20404;-90
2021/12/25 14:50:44;;;;;;;;;;;-2.10;99.90;;;;;;5017623;28;20450;-88
2021/12/25 14:53:17;;;;;;;;;;;-2.20;99.90;;;;;;5013389;28;20561;-90
2021/12/25 14:59:19;;;;;;;;;;;-2.20;99.90;;;;;;4955047;28;20430;-88
2021/12/25 15:01:46;;;;;;;;;;;-1.90;99.90;;;;;;4963041;28;19929;-85
2021/12/25 15:04:50;;;;;;;;;;;-2.30;99.90;;;;;;5057065;28;19924;-91
2021/12/25 15:07:44;;;;;;;;;;;-2.20;99.90;;;;;;5053287;28;20266;-92
2021/12/25 15:10:29;;;;;;;;;;;;;;;;;;;;;
2021/12/25 15:19:27;;;;;;;;;;;-2.40;99.90;;;;;;5067261;28;20520;-92
2021/12/25 15:21:53;;;;;;;;;;;-2.50;99.90;;;;;;5068775;28;20265;-87
2021/12/25 15:24:21;;;;;;;;;;;-2.60;99.90;;;;;;5069268;28;19935;-90
2021/12/25 15:26:48;;;;;;;;;;;0.20;99.90;;;;;;5057517;28;19936;-88
2021/12/25 15:29:14;;;;;;;;;;;-2.60;99.90;;;;;;5047705;28;19955;-87
2021/12/25 15:31:40;;;;;;;;;;;-2.80;99.90;;;;;;5068872;28;20393;-84
2021/12/25 15:34:07;;;;;;;;;;;-2.70;99.90;;;;;;5067418;28;19924;-85
2021/12/25 15:36:37;;;;;;;;;;;-2.80;99.90;;;;;;5064350;28;20023;-90
2021/12/25 15:39:11;;;;;;;;;;;-2.90;99.90;;;;;;5068719;28;20014;-91
2021/12/25 15:41:36;;;;;;;;;;;-2.90;99.90;;;;;;5069624;28;20063;-85
2021/12/25 15:44:02;;;;;;;;;;;-0.50;99.90;;;;;;5064017;28;20665;-88
2021/12/25 15:46:27;;;;;;;;;;;-3.00;99.90;;;;;;5068467;28;19928;-86
2021/12/25 15:48:53;;;;;;;;;;;-3.10;99.90;;;;;;5065142;28;19936;-88
2021/12/25 15:51:20;;;;;;;;;;;-3.00;99.90;;;;;;5065133;28;19943;-92
2021/12/25 15:53:46;;;;;;;;;;;-3.20;99.90;;;;;;5068339;28;19993;-87
2021/12/25 15:56:12;;;;;;;;;;;-3.20;99.90;;;;;;5066119;28;20018;-85
2021/12/25 15:58:38;;;;;;;;;;;-3.20;99.90;;;;;;5069956;28;20013;-86
2021/12/25 16:01:04;;;;;;;;;;;-3.20;99.90;;;;;;5069897;28;19932;-86
2021/12/25 16:03:32;;;;;;;;;;;-3.40;99.90;;;;;;5050923;28;19928;-87
2021/12/25 16:06:03;;;;;;;;;;;-3.40;99.90;;;;;;5064279;28;19968;-90
2021/12/25 16:08:29;;;;;;;;;;;-3.40;99.90;;;;;;5063861;28;19948;-86
2021/12/25 16:10:55;;;;;;;;;;;-3.40;99.90;;;;;;5056965;28;19958;-89
2021/12/25 16:13:22;;;;;;;;;;;-3.40;99.90;;;;;;5048486;28;19925;-92
2021/12/25 16:15:52;;;;;;;;;;;-6.00;99.90;;;;;;5062144;28;20068;-85
2021/12/25 16:18:19;;;;;;;;;;;-3.20;99.90;;;;;;5071051;28;19964;-87
2021/12/25 16:20:44;;;;;;;;;;;-3.60;99.90;;;;;;5067292;28;20019;-87
2021/12/25 16:23:10;;;;;;;;;;;-3.70;99.90;;;;;;5068637;28;20424;-87
2021/12/25 16:25:36;;;;;;;;;;;-2.90;99.90;;;;;;5072719;28;20339;-86
2021/12/25 16:28:03;;;;;;;;;;;-3.50;99.90;;;;;;5073264;28;19928;-86
2021/12/25 16:30:30;;;;;;;;;;;-3.50;99.90;;;;;;5061541;28;20372;-86
2021/12/25 16:32:55;;;;;;;;;;;-3.40;99.90;;;;;;5070631;28;19979;-85
2021/12/25 16:35:21;;;;;;;;;;;-3.50;99.90;;;;;;5062963;28;19967;-91
2021/12/25 16:37:47;;;;;;;;;;;-3.60;99.90;;;;;;5072356;28;20303;-87
2021/12/25 16:40:12;;;;;;;;;;;-3.80;99.90;;;;;;5052381;28;20415;-87
2021/12/25 16:42:38;;;;;;;;;;;-3.70;99.90;;;;;;5069161;28;19925;-88
2021/12/25 16:45:05;;;;;;;;;;;-3.90;99.90;;;;;;5072073;28;19925;-87
2021/12/25 16:47:30;;;;;;;;;;;-3.70;99.90;;;;;;5069208;28;19924;-89
2021/12/25 16:49:56;;;;;;;;;;;-3.70;99.90;;;;;;5070293;28;19935;-89
2021/12/25 16:52:22;;;;;;;;;;;-3.80;99.90;;;;;;5053086;28;19967;-86
2021/12/25 16:54:48;;;;;;;;;;;-3.80;99.90;;;;;;5052789;28;19924;-87
2021/12/25 16:57:14;;;;;;;;;;;-2.30;99.90;;;;;;5030102;28;20023;-88
2021/12/25 16:59:40;;;;;;;;;;;-3.80;99.90;;;;;;5055571;28;20423;-87
2021/12/25 17:02:06;;;;;;;;;;;-4.00;99.90;;;;;;5067785;28;19960;-87
2021/12/25 17:04:35;;;;;;;;;;;-4.00;99.90;;;;;;5053782;28;19999;-87
2021/12/25 17:07:04;;;;;;;;;;;-4.00;99.90;;;;;;5053167;28;20381;-90
2021/12/25 17:09:34;;;;;;;;;;;-4.10;99.90;;;;;;5051911;28;19924;-90
2021/12/25 17:12:00;;;;;;;;;;;-4.30;99.90;;;;;;5063279;28;19928;-87
2021/12/25 17:14:50;;;;;;;;;;;-4.20;99.90;;;;;;5048951;28;19924;-88
2021/12/25 17:17:59;;;;;;;;;;;;;;;;;;;;;
2021/12/25 17:20:27;;;;;;;;;;;-4.20;99.90;;;;;;5046687;28;19947;-85
2021/12/25 17:22:53;;;;;;;;;;;-2.30;99.90;;;;;;5083385;28;20526;-83